sensor_id;sensor_type;location;lat;lon;timestamp;P1;durP1;ratioP1;P2;durP2;ratioP2
21089;SDS011;10703;51.020;6.128;2023-07-31T00:01:20;10.13;;;6.07;;
21089;SDS011;10703;51.020;6.128;2023-07-31T00:03:46;11.00;;;5.17;;
21089;SDS011;10703;51.020;6.128;2023-07-31T00:06:13;10.10;;;6.03;;
21089;SDS011;10703;51.020;6.128;2023-07-31T00:08:40;9.97;;;5.03;;
21089;SDS011;10703;51.020;6.128;2023-07-31T00:11:06;12.00;;;6.43;;
21089;SDS011;10703;51.020;6.128;2023-07-31T00:13:33;12.97;;;5.47;;
21089;SDS011;10703;51.020;6.128;2023-07-31T00:16:00;7.20;;;5.30;;
21089;SDS011;10703;51.020;6.128;2023-07-31T00:18:26;12.90;;;6.10;;
21089;SDS011;10703;51.020;6.128;2023-07-31T00:20:53;11.83;;;5.63;;
21089;SDS011;10703;51.020;6.128;2023-07-31T00:23:20;7.33;;;5.73;;
21089;SDS011;10703;51.020;6.128;2023-07-31T00:25:46;10.47;;;5.87;;
21089;SDS011;10703;51.020;6.128;2023-07-31T00:28:13;10.03;;;5.60;;
21089;SDS011;10703;51.020;6.128;2023-07-31T00:30:40;9.13;;;5.20;;
21089;SDS011;10703;51.020;6.128;2023-07-31T00:33:06;7.23;;;5.63;;
21089;SDS011;10703;51.020;6.128;2023-07-31T00:35:33;11.07;;;5.70;;
21089;SDS011;10703;51.020;6.128;2023-07-31T00:37:59;16.60;;;6.33;;
21089;SDS011;10703;51.020;6.128;2023-07-31T00:40:26;9.03;;;5.50;;
21089;SDS011;10703;51.020;6.128;2023-07-31T00:42:53;11.07;;;5.87;;
21089;SDS011;10703;51.020;6.128;2023-07-31T00:45:19;10.73;;;6.43;;
21089;SDS011;10703;51.020;6.128;2023-07-31T00:47:49;8.47;;;6.17;;
21089;SDS011;10703;51.020;6.128;2023-07-31T00:50:15;11.83;;;6.10;;
21089;SDS011;10703;51.020;6.128;2023-07-31T00:52:42;15.07;;;6.27;;
21089;SDS011;10703;51.020;6.128;2023-07-31T00:55:09;12.67;;;5.87;;
21089;SDS011;10703;51.020;6.128;2023-07-31T00:57:36;12.00;;;5.97;;
21089;SDS011;10703;51.020;6.128;2023-07-31T01:00:04;9.43;;;6.23;;
21089;SDS011;10703;51.020;6.128;2023-07-31T01:02:31;8.43;;;6.20;;
21089;SDS011;10703;51.020;6.128;2023-07-31T01:04:58;9.47;;;6.13;;
21089;SDS011;10703;51.020;6.128;2023-07-31T01:07:27;11.57;;;6.40;;
21089;SDS011;10703;51.020;6.128;2023-07-31T01:10:08;11.73;;;6.03;;
21089;SDS011;10703;51.020;6.128;2023-07-31T01:12:36;9.87;;;6.77;;
21089;SDS011;10703;51.020;6.128;2023-07-31T01:15:05;10.23;;;6.30;;
21089;SDS011;10703;51.020;6.128;2023-07-31T01:17:39;8.47;;;5.90;;
21089;SDS011;10703;51.020;6.128;2023-07-31T01:23:02;8.90;;;6.13;;
21089;SDS011;10703;51.020;6.128;2023-07-31T01:25:59;12.93;;;6.60;;
21089;SDS011;10703;51.020;6.128;2023-07-31T01:28:44;11.00;;;5.97;;
21089;SDS011;10703;51.020;6.128;2023-07-31T01:31:20;9.43;;;5.73;;
21089;SDS011;10703;51.020;6.128;2023-07-31T01:33:50;13.80;;;6.33;;
21089;SDS011;10703;51.020;6.128;2023-07-31T01:36:20;10.80;;;5.83;;
21089;SDS011;10703;51.020;6.128;2023-07-31T01:38:46;10.47;;;6.00;;
21089;SDS011;10703;51.020;6.128;2023-07-31T01:41:16;10.00;;;5.77;;
21089;SDS011;10703;51.020;6.128;2023-07-31T01:43:44;11.30;;;6.83;;
21089;SDS011;10703;51.020;6.128;2023-07-31T01:46:11;8.37;;;5.90;;
21089;SDS011;10703;51.020;6.128;2023-07-31T01:48:38;13.23;;;6.33;;
21089;SDS011;10703;51.020;6.128;2023-07-31T01:51:05;8.10;;;5.87;;
21089;SDS011;10703;51.020;6.128;2023-07-31T01:53:31;9.63;;;6.07;;
21089;SDS011;10703;51.020;6.128;2023-07-31T01:55:58;8.60;;;5.37;;
21089;SDS011;10703;51.020;6.128;2023-07-31T01:58:25;10.67;;;5.93;;
21089;SDS011;10703;51.020;6.128;2023-07-31T02:00:51;11.30;;;6.37;;
21089;SDS011;10703;51.020;6.128;2023-07-31T02:03:18;9.70;;;6.20;;
21089;SDS011;10703;51.020;6.128;2023-07-31T02:05:48;11.77;;;7.00;;
21089;SDS011;10703;51.020;6.128;2023-07-31T02:08:16;9.93;;;6.17;;
21089;SDS011;10703;51.020;6.128;2023-07-31T02:10:43;9.67;;;6.10;;
21089;SDS011;10703;51.020;6.128;2023-07-31T02:13:09;8.43;;;5.87;;
21089;SDS011;10703;51.020;6.128;2023-07-31T02:15:36;12.07;;;6.50;;
21089;SDS011;10703;51.020;6.128;2023-07-31T02:18:03;14.90;;;6.30;;
21089;SDS011;10703;51.020;6.128;2023-07-31T02:20:33;13.47;;;6.80;;
21089;SDS011;10703;51.020;6.128;2023-07-31T02:23:01;8.03;;;5.80;;
21089;SDS011;10703;51.020;6.128;2023-07-31T02:25:28;12.77;;;6.13;;
21089;SDS011;10703;51.020;6.128;2023-07-31T02:27:54;14.10;;;5.80;;
21089;SDS011;10703;51.020;6.128;2023-07-31T02:30:21;7.93;;;6.23;;
21089;SDS011;10703;51.020;6.128;2023-07-31T02:32:48;12.27;;;6.13;;
21089;SDS011;10703;51.020;6.128;2023-07-31T02:35:15;6.03;;;5.30;;
21089;SDS011;10703;51.020;6.128;2023-07-31T02:37:42;7.63;;;6.20;;
21089;SDS011;10703;51.020;6.128;2023-07-31T02:40:09;11.87;;;6.37;;
21089;SDS011;10703;51.020;6.128;2023-07-31T02:42:36;10.80;;;6.33;;
21089;SDS011;10703;51.020;6.128;2023-07-31T02:45:02;9.67;;;6.33;;
21089;SDS011;10703;51.020;6.128;2023-07-31T02:47:29;8.20;;;5.60;;
21089;SDS011;10703;51.020;6.128;2023-07-31T02:49:56;8.77;;;6.40;;
21089;SDS011;10703;51.020;6.128;2023-07-31T02:52:23;15.80;;;7.03;;
21089;SDS011;10703;51.020;6.128;2023-07-31T02:54:50;13.17;;;7.03;;
21089;SDS011;10703;51.020;6.128;2023-07-31T02:57:17;14.10;;;7.00;;
21089;SDS011;10703;51.020;6.128;2023-07-31T02:59:43;11.43;;;6.93;;
21089;SDS011;10703;51.020;6.128;2023-07-31T03:02:10;15.83;;;7.40;;
21089;SDS011;10703;51.020;6.128;2023-07-31T03:04:37;12.10;;;6.60;;
21089;SDS011;10703;51.020;6.128;2023-07-31T03:07:04;11.63;;;6.43;;
21089;SDS011;10703;51.020;6.128;2023-07-31T03:09:31;10.60;;;6.63;;
21089;SDS011;10703;51.020;6.128;2023-07-31T03:11:58;12.73;;;6.60;;
21089;SDS011;10703;51.020;6.128;2023-07-31T03:14:24;14.50;;;6.93;;
21089;SDS011;10703;51.020;6.128;2023-07-31T03:16:53;11.37;;;6.80;;
21089;SDS011;10703;51.020;6.128;2023-07-31T03:19:19;13.57;;;7.43;;
21089;SDS011;10703;51.020;6.128;2023-07-31T03:21:46;6.87;;;5.97;;
21089;SDS011;10703;51.020;6.128;2023-07-31T03:24:13;8.73;;;6.90;;
21089;SDS011;10703;51.020;6.128;2023-07-31T03:26:39;15.13;;;6.67;;
21089;SDS011;10703;51.020;6.128;2023-07-31T03:29:08;6.87;;;6.20;;
21089;SDS011;10703;51.020;6.128;2023-07-31T03:31:34;11.37;;;6.50;;
21089;SDS011;10703;51.020;6.128;2023-07-31T03:34:01;11.27;;;7.03;;
21089;SDS011;10703;51.020;6.128;2023-07-31T03:36:28;13.07;;;6.70;;
21089;SDS011;10703;51.020;6.128;2023-07-31T03:38:54;13.13;;;6.90;;
21089;SDS011;10703;51.020;6.128;2023-07-31T03:41:21;13.43;;;7.57;;
21089;SDS011;10703;51.020;6.128;2023-07-31T03:43:49;11.17;;;6.90;;
21089;SDS011;10703;51.020;6.128;2023-07-31T03:46:18;9.80;;;6.90;;
21089;SDS011;10703;51.020;6.128;2023-07-31T03:48:44;10.57;;;6.37;;
21089;SDS011;10703;51.020;6.128;2023-07-31T03:51:11;11.57;;;7.30;;
21089;SDS011;10703;51.020;6.128;2023-07-31T03:53:38;8.10;;;7.07;;
21089;SDS011;10703;51.020;6.128;2023-07-31T03:56:04;9.90;;;7.00;;
21089;SDS011;10703;51.020;6.128;2023-07-31T03:58:31;10.47;;;6.50;;
21089;SDS011;10703;51.020;6.128;2023-07-31T04:00:57;8.73;;;6.83;;
21089;SDS011;10703;51.020;6.128;2023-07-31T04:03:25;10.13;;;6.57;;
21089;SDS011;10703;51.020;6.128;2023-07-31T04:05:53;12.90;;;6.67;;
21089;SDS011;10703;51.020;6.128;2023-07-31T04:08:22;13.33;;;6.73;;
21089;SDS011;10703;51.020;6.128;2023-07-31T04:10:49;7.30;;;6.10;;
21089;SDS011;10703;51.020;6.128;2023-07-31T04:13:16;9.63;;;6.57;;
21089;SDS011;10703;51.020;6.128;2023-07-31T04:15:42;8.90;;;6.40;;
21089;SDS011;10703;51.020;6.128;2023-07-31T04:18:15;10.43;;;6.07;;
21089;SDS011;10703;51.020;6.128;2023-07-31T04:20:41;13.10;;;6.93;;
21089;SDS011;10703;51.020;6.128;2023-07-31T04:23:08;10.83;;;6.73;;
21089;SDS011;10703;51.020;6.128;2023-07-31T04:25:35;9.80;;;5.17;;
21089;SDS011;10703;51.020;6.128;2023-07-31T04:28:01;9.43;;;5.73;;
21089;SDS011;10703;51.020;6.128;2023-07-31T04:30:28;6.37;;;5.07;;
21089;SDS011;10703;51.020;6.128;2023-07-31T04:32:55;6.10;;;5.40;;
21089;SDS011;10703;51.020;6.128;2023-07-31T04:35:21;6.80;;;5.63;;
21089;SDS011;10703;51.020;6.128;2023-07-31T04:37:48;6.67;;;6.03;;
21089;SDS011;10703;51.020;6.128;2023-07-31T04:40:15;8.47;;;5.90;;
21089;SDS011;10703;51.020;6.128;2023-07-31T04:42:42;9.10;;;5.73;;
21089;SDS011;10703;51.020;6.128;2023-07-31T04:45:09;9.87;;;5.97;;
21089;SDS011;10703;51.020;6.128;2023-07-31T04:47:35;7.87;;;5.73;;
21089;SDS011;10703;51.020;6.128;2023-07-31T04:50:02;10.00;;;5.97;;
21089;SDS011;10703;51.020;6.128;2023-07-31T04:52:29;7.10;;;5.00;;
21089;SDS011;10703;51.020;6.128;2023-07-31T04:54:56;8.03;;;5.97;;
21089;SDS011;10703;51.020;6.128;2023-07-31T04:57:22;10.73;;;6.40;;
21089;SDS011;10703;51.020;6.128;2023-07-31T04:59:49;6.40;;;5.80;;
21089;SDS011;10703;51.020;6.128;2023-07-31T05:02:16;8.30;;;6.00;;
21089;SDS011;10703;51.020;6.128;2023-07-31T05:04:43;8.53;;;6.43;;
21089;SDS011;10703;51.020;6.128;2023-07-31T05:07:09;6.77;;;5.93;;
21089;SDS011;10703;51.020;6.128;2023-07-31T05:09:36;7.00;;;5.83;;
21089;SDS011;10703;51.020;6.128;2023-07-31T05:12:05;6.57;;;5.60;;
21089;SDS011;10703;51.020;6.128;2023-07-31T05:14:32;7.23;;;5.70;;
21089;SDS011;10703;51.020;6.128;2023-07-31T05:16:59;6.53;;;5.03;;
21089;SDS011;10703;51.020;6.128;2023-07-31T05:19:25;9.40;;;6.10;;
21089;SDS011;10703;51.020;6.128;2023-07-31T05:21:52;8.17;;;5.87;;
21089;SDS011;10703;51.020;6.128;2023-07-31T05:24:18;6.20;;;5.47;;
21089;SDS011;10703;51.020;6.128;2023-07-31T05:26:45;12.13;;;6.13;;
21089;SDS011;10703;51.020;6.128;2023-07-31T05:29:12;6.60;;;5.90;;
21089;SDS011;10703;51.020;6.128;2023-07-31T05:31:38;8.73;;;6.10;;
21089;SDS011;10703;51.020;6.128;2023-07-31T05:34:05;8.67;;;6.13;;
21089;SDS011;10703;51.020;6.128;2023-07-31T05:36:32;11.90;;;6.27;;
21089;SDS011;10703;51.020;6.128;2023-07-31T05:38:58;11.03;;;6.20;;
21089;SDS011;10703;51.020;6.128;2023-07-31T05:41:25;8.10;;;5.73;;
21089;SDS011;10703;51.020;6.128;2023-07-31T05:43:51;6.27;;;5.53;;
21089;SDS011;10703;51.020;6.128;2023-07-31T05:46:18;7.60;;;5.80;;
21089;SDS011;10703;51.020;6.128;2023-07-31T05:48:44;8.47;;;6.10;;
21089;SDS011;10703;51.020;6.128;2023-07-31T05:51:11;7.70;;;6.40;;
21089;SDS011;10703;51.020;6.128;2023-07-31T05:53:38;7.97;;;5.80;;
21089;SDS011;10703;51.020;6.128;2023-07-31T05:56:07;9.07;;;5.23;;
21089;SDS011;10703;51.020;6.128;2023-07-31T05:58:33;9.73;;;6.17;;
21089;SDS011;10703;51.020;6.128;2023-07-31T06:01:00;10.43;;;5.80;;
21089;SDS011;10703;51.020;6.128;2023-07-31T06:03:27;8.33;;;5.70;;
21089;SDS011;10703;51.020;6.128;2023-07-31T06:05:54;10.07;;;6.10;;
21089;SDS011;10703;51.020;6.128;2023-07-31T06:08:20;7.67;;;6.03;;
21089;SDS011;10703;51.020;6.128;2023-07-31T06:10:47;8.37;;;6.17;;
21089;SDS011;10703;51.020;6.128;2023-07-31T06:13:14;8.70;;;5.77;;
21089;SDS011;10703;51.020;6.128;2023-07-31T06:15:40;8.63;;;5.87;;
21089;SDS011;10703;51.020;6.128;2023-07-31T06:18:07;10.50;;;6.27;;
21089;SDS011;10703;51.020;6.128;2023-07-31T06:20:34;6.80;;;5.57;;
21089;SDS011;10703;51.020;6.128;2023-07-31T06:23:01;10.97;;;6.27;;
21089;SDS011;10703;51.020;6.128;2023-07-31T06:25:28;7.37;;;5.10;;
21089;SDS011;10703;51.020;6.128;2023-07-31T06:27:55;9.57;;;5.90;;
21089;SDS011;10703;51.020;6.128;2023-07-31T06:30:21;8.60;;;5.67;;
21089;SDS011;10703;51.020;6.128;2023-07-31T06:32:48;9.50;;;5.93;;
21089;SDS011;10703;51.020;6.128;2023-07-31T06:35:14;9.40;;;5.00;;
21089;SDS011;10703;51.020;6.128;2023-07-31T06:37:41;6.30;;;5.20;;
21089;SDS011;10703;51.020;6.128;2023-07-31T06:40:10;8.80;;;6.23;;
21089;SDS011;10703;51.020;6.128;2023-07-31T06:42:37;5.63;;;5.03;;
21089;SDS011;10703;51.020;6.128;2023-07-31T06:45:04;7.17;;;5.07;;
21089;SDS011;10703;51.020;6.128;2023-07-31T06:47:31;6.10;;;5.50;;
21089;SDS011;10703;51.020;6.128;2023-07-31T06:49:58;7.07;;;5.07;;
21089;SDS011;10703;51.020;6.128;2023-07-31T06:52:24;7.10;;;5.73;;
21089;SDS011;10703;51.020;6.128;2023-07-31T06:55:01;6.43;;;5.30;;
21089;SDS011;10703;51.020;6.128;2023-07-31T06:57:29;8.13;;;6.23;;
21089;SDS011;10703;51.020;6.128;2023-07-31T06:59:56;7.00;;;5.60;;
21089;SDS011;10703;51.020;6.128;2023-07-31T07:02:23;4.70;;;4.30;;
21089;SDS011;10703;51.020;6.128;2023-07-31T07:04:49;6.63;;;5.30;;
21089;SDS011;10703;51.020;6.128;2023-07-31T07:07:16;9.57;;;6.00;;
21089;SDS011;10703;51.020;6.128;2023-07-31T07:09:43;7.77;;;5.37;;
21089;SDS011;10703;51.020;6.128;2023-07-31T07:12:10;8.63;;;5.47;;
21089;SDS011;10703;51.020;6.128;2023-07-31T07:14:36;10.90;;;5.93;;
21089;SDS011;10703;51.020;6.128;2023-07-31T07:17:03;8.43;;;5.70;;
21089;SDS011;10703;51.020;6.128;2023-07-31T07:19:30;6.37;;;4.87;;
21089;SDS011;10703;51.020;6.128;2023-07-31T07:21:56;6.20;;;5.43;;
21089;SDS011;10703;51.020;6.128;2023-07-31T07:24:23;7.60;;;5.50;;
21089;SDS011;10703;51.020;6.128;2023-07-31T07:26:50;6.53;;;5.80;;
21089;SDS011;10703;51.020;6.128;2023-07-31T07:29:16;14.03;;;5.90;;
21089;SDS011;10703;51.020;6.128;2023-07-31T07:31:43;8.87;;;5.63;;
21089;SDS011;10703;51.020;6.128;2023-07-31T07:34:09;7.47;;;4.90;;
21089;SDS011;10703;51.020;6.128;2023-07-31T07:36:36;9.73;;;5.83;;
21089;SDS011;10703;51.020;6.128;2023-07-31T07:39:04;6.17;;;5.43;;
21089;SDS011;10703;51.020;6.128;2023-07-31T07:41:31;6.27;;;5.30;;
21089;SDS011;10703;51.020;6.128;2023-07-31T07:43:57;8.00;;;5.73;;
21089;SDS011;10703;51.020;6.128;2023-07-31T07:46:24;8.30;;;5.17;;
21089;SDS011;10703;51.020;6.128;2023-07-31T07:48:51;8.50;;;5.83;;
21089;SDS011;10703;51.020;6.128;2023-07-31T07:51:17;7.83;;;5.37;;
21089;SDS011;10703;51.020;6.128;2023-07-31T07:53:44;8.90;;;5.40;;
21089;SDS011;10703;51.020;6.128;2023-07-31T07:56:10;8.60;;;6.03;;
21089;SDS011;10703;51.020;6.128;2023-07-31T07:58:37;7.83;;;6.23;;
21089;SDS011;10703;51.020;6.128;2023-07-31T08:01:04;7.17;;;5.60;;
21089;SDS011;10703;51.020;6.128;2023-07-31T08:03:31;9.20;;;5.83;;
21089;SDS011;10703;51.020;6.128;2023-07-31T08:05:58;7.67;;;5.77;;
21089;SDS011;10703;51.020;6.128;2023-07-31T08:08:26;9.07;;;5.60;;
21089;SDS011;10703;51.020;6.128;2023-07-31T08:10:54;9.47;;;5.60;;
21089;SDS011;10703;51.020;6.128;2023-07-31T08:13:20;6.90;;;5.10;;
21089;SDS011;10703;51.020;6.128;2023-07-31T08:15:47;7.27;;;5.47;;
21089;SDS011;10703;51.020;6.128;2023-07-31T08:18:14;9.73;;;5.53;;
21089;SDS011;10703;51.020;6.128;2023-07-31T08:20:41;5.13;;;4.67;;
21089;SDS011;10703;51.020;6.128;2023-07-31T08:23:08;10.27;;;5.13;;
21089;SDS011;10703;51.020;6.128;2023-07-31T08:25:35;6.53;;;5.33;;
21089;SDS011;10703;51.020;6.128;2023-07-31T08:28:03;9.67;;;4.50;;
21089;SDS011;10703;51.020;6.128;2023-07-31T08:30:31;9.10;;;5.67;;
21089;SDS011;10703;51.020;6.128;2023-07-31T08:32:59;9.87;;;5.40;;
21089;SDS011;10703;51.020;6.128;2023-07-31T08:35:26;5.83;;;5.33;;
21089;SDS011;10703;51.020;6.128;2023-07-31T08:37:56;7.90;;;5.43;;
21089;SDS011;10703;51.020;6.128;2023-07-31T08:40:23;6.23;;;5.60;;
21089;SDS011;10703;51.020;6.128;2023-07-31T08:42:53;9.47;;;5.80;;
21089;SDS011;10703;51.020;6.128;2023-07-31T08:45:22;7.23;;;6.00;;
21089;SDS011;10703;51.020;6.128;2023-07-31T08:47:50;5.70;;;4.50;;
21089;SDS011;10703;51.020;6.128;2023-07-31T08:50:18;6.07;;;5.20;;
21089;SDS011;10703;51.020;6.128;2023-07-31T08:52:46;7.70;;;5.47;;
21089;SDS011;10703;51.020;6.128;2023-07-31T08:55:15;7.67;;;4.87;;
21089;SDS011;10703;51.020;6.128;2023-07-31T08:57:42;7.00;;;5.50;;
21089;SDS011;10703;51.020;6.128;2023-07-31T09:00:10;5.47;;;4.90;;
21089;SDS011;10703;51.020;6.128;2023-07-31T09:02:38;5.43;;;4.93;;
21089;SDS011;10703;51.020;6.128;2023-07-31T09:05:11;6.40;;;5.40;;
21089;SDS011;10703;51.020;6.128;2023-07-31T09:07:38;6.53;;;5.70;;
21089;SDS011;10703;51.020;6.128;2023-07-31T09:10:06;5.43;;;4.80;;
21089;SDS011;10703;51.020;6.128;2023-07-31T09:12:33;5.13;;;4.63;;
21089;SDS011;10703;51.020;6.128;2023-07-31T09:15:00;6.03;;;4.73;;
21089;SDS011;10703;51.020;6.128;2023-07-31T09:20:01;7.43;;;4.90;;
21089;SDS011;10703;51.020;6.128;2023-07-31T09:22:42;8.60;;;5.30;;
21089;SDS011;10703;51.020;6.128;2023-07-31T09:25:17;4.70;;;4.23;;
21089;SDS011;10703;51.020;6.128;2023-07-31T09:27:46;6.60;;;5.17;;
21089;SDS011;10703;51.020;6.128;2023-07-31T09:30:14;6.40;;;4.93;;
21089;SDS011;10703;51.020;6.128;2023-07-31T09:32:42;9.40;;;5.37;;
21089;SDS011;10703;51.020;6.128;2023-07-31T09:37:53;5.73;;;5.23;;
21089;SDS011;10703;51.020;6.128;2023-07-31T09:40:26;8.00;;;5.57;;
21089;SDS011;10703;51.020;6.128;2023-07-31T09:42:58;6.03;;;5.03;;
21089;SDS011;10703;51.020;6.128;2023-07-31T09:45:26;6.03;;;5.27;;
21089;SDS011;10703;51.020;6.128;2023-07-31T09:48:07;6.87;;;5.53;;
21089;SDS011;10703;51.020;6.128;2023-07-31T09:50:36;5.93;;;5.40;;
21089;SDS011;10703;51.020;6.128;2023-07-31T09:53:05;10.63;;;5.90;;
21089;SDS011;10703;51.020;6.128;2023-07-31T09:55:33;7.20;;;5.60;;
21089;SDS011;10703;51.020;6.128;2023-07-31T09:58:04;11.40;;;5.90;;
21089;SDS011;10703;51.020;6.128;2023-07-31T10:00:35;6.47;;;5.17;;
21089;SDS011;10703;51.020;6.128;2023-07-31T10:03:06;5.23;;;4.73;;
21089;SDS011;10703;51.020;6.128;2023-07-31T10:05:38;6.20;;;5.00;;
21089;SDS011;10703;51.020;6.128;2023-07-31T10:08:09;6.93;;;5.23;;
21089;SDS011;10703;51.020;6.128;2023-07-31T10:10:37;8.70;;;5.60;;
21089;SDS011;10703;51.020;6.128;2023-07-31T10:13:06;6.03;;;4.80;;
21089;SDS011;10703;51.020;6.128;2023-07-31T10:15:34;4.97;;;4.43;;
21089;SDS011;10703;51.020;6.128;2023-07-31T10:18:02;5.53;;;5.03;;
21089;SDS011;10703;51.020;6.128;2023-07-31T10:20:31;5.07;;;4.57;;
21089;SDS011;10703;51.020;6.128;2023-07-31T10:22:58;5.90;;;4.43;;
21089;SDS011;10703;51.020;6.128;2023-07-31T10:25:26;5.47;;;4.60;;
21089;SDS011;10703;51.020;6.128;2023-07-31T10:27:53;7.33;;;5.00;;
21089;SDS011;10703;51.020;6.128;2023-07-31T10:30:22;4.37;;;4.07;;
21089;SDS011;10703;51.020;6.128;2023-07-31T10:32:55;5.77;;;4.20;;
21089;SDS011;10703;51.020;6.128;2023-07-31T10:35:22;5.43;;;4.47;;
21089;SDS011;10703;51.020;6.128;2023-07-31T10:37:49;4.33;;;3.93;;
21089;SDS011;10703;51.020;6.128;2023-07-31T10:40:26;4.83;;;4.20;;
21089;SDS011;10703;51.020;6.128;2023-07-31T10:42:54;4.07;;;3.63;;
21089;SDS011;10703;51.020;6.128;2023-07-31T10:45:24;4.83;;;4.30;;
21089;SDS011;10703;51.020;6.128;2023-07-31T10:47:59;4.80;;;4.00;;
21089;SDS011;10703;51.020;6.128;2023-07-31T10:50:28;4.13;;;3.83;;
21089;SDS011;10703;51.020;6.128;2023-07-31T10:52:58;4.20;;;3.80;;
21089;SDS011;10703;51.020;6.128;2023-07-31T10:55:35;3.73;;;3.43;;
21089;SDS011;10703;51.020;6.128;2023-07-31T10:58:07;4.00;;;3.67;;
21089;SDS011;10703;51.020;6.128;2023-07-31T11:00:38;4.70;;;3.57;;
21089;SDS011;10703;51.020;6.128;2023-07-31T11:03:10;3.80;;;3.53;;
21089;SDS011;10703;51.020;6.128;2023-07-31T11:05:46;3.93;;;3.53;;
21089;SDS011;10703;51.020;6.128;2023-07-31T11:08:21;4.20;;;3.80;;
21089;SDS011;10703;51.020;6.128;2023-07-31T11:13:31;3.50;;;3.20;;
21089;SDS011;10703;51.020;6.128;2023-07-31T11:16:00;3.80;;;3.50;;
21089;SDS011;10703;51.020;6.128;2023-07-31T11:18:27;3.90;;;3.60;;
21089;SDS011;10703;51.020;6.128;2023-07-31T11:20:53;3.53;;;3.33;;
21089;SDS011;10703;51.020;6.128;2023-07-31T11:23:21;4.30;;;3.90;;
21089;SDS011;10703;51.020;6.128;2023-07-31T11:25:49;3.87;;;3.57;;
21089;SDS011;10703;51.020;6.128;2023-07-31T11:28:17;5.90;;;3.80;;
21089;SDS011;10703;51.020;6.128;2023-07-31T11:30:45;3.87;;;3.57;;
21089;SDS011;10703;51.020;6.128;2023-07-31T11:33:13;3.70;;;3.40;;
21089;SDS011;10703;51.020;6.128;2023-07-31T11:35:44;6.17;;;3.43;;
21089;SDS011;10703;51.020;6.128;2023-07-31T11:38:20;4.03;;;3.73;;
21089;SDS011;10703;51.020;6.128;2023-07-31T11:40:52;4.20;;;3.80;;
21089;SDS011;10703;51.020;6.128;2023-07-31T11:43:23;4.80;;;4.20;;
21089;SDS011;10703;51.020;6.128;2023-07-31T11:45:51;4.03;;;3.73;;
21089;SDS011;10703;51.020;6.128;2023-07-31T11:48:29;5.37;;;4.13;;
21089;SDS011;10703;51.020;6.128;2023-07-31T11:50:57;4.90;;;4.20;;
21089;SDS011;10703;51.020;6.128;2023-07-31T11:53:28;5.13;;;4.47;;
21089;SDS011;10703;51.020;6.128;2023-07-31T11:56:08;4.83;;;4.43;;
21089;SDS011;10703;51.020;6.128;2023-07-31T11:58:37;5.07;;;4.23;;
21089;SDS011;10703;51.020;6.128;2023-07-31T12:01:05;5.20;;;4.70;;
21089;SDS011;10703;51.020;6.128;2023-07-31T12:03:32;5.13;;;4.50;;
21089;SDS011;10703;51.020;6.128;2023-07-31T12:06:00;6.17;;;5.03;;
21089;SDS011;10703;51.020;6.128;2023-07-31T12:08:27;5.57;;;5.03;;
21089;SDS011;10703;51.020;6.128;2023-07-31T12:11:01;6.57;;;5.20;;
21089;SDS011;10703;51.020;6.128;2023-07-31T12:13:30;7.80;;;5.80;;
21089;SDS011;10703;51.020;6.128;2023-07-31T12:15:59;7.20;;;5.83;;
21089;SDS011;10703;51.020;6.128;2023-07-31T12:18:28;5.70;;;5.20;;
21089;SDS011;10703;51.020;6.128;2023-07-31T12:20:59;4.97;;;4.53;;
21089;SDS011;10703;51.020;6.128;2023-07-31T12:28:42;4.57;;;4.17;;
21089;SDS011;10703;51.020;6.128;2023-07-31T12:31:12;4.95;;;4.47;;
21089;SDS011;10703;51.020;6.128;2023-07-31T12:33:46;4.85;;;4.35;;
21089;SDS011;10703;51.020;6.128;2023-07-31T12:36:20;4.30;;;3.90;;
21089;SDS011;10703;51.020;6.128;2023-07-31T12:38:51;6.40;;;4.23;;
21089;SDS011;10703;51.020;6.128;2023-07-31T12:41:18;6.28;;;4.75;;
21089;SDS011;10703;51.020;6.128;2023-07-31T12:43:45;5.43;;;4.60;;
21089;SDS011;10703;51.020;6.128;2023-07-31T12:46:12;5.30;;;4.80;;
21089;SDS011;10703;51.020;6.128;2023-07-31T12:48:39;5.73;;;5.10;;
21089;SDS011;10703;51.020;6.128;2023-07-31T12:51:06;8.13;;;5.20;;
21089;SDS011;10703;51.020;6.128;2023-07-31T12:53:33;6.73;;;4.70;;
21089;SDS011;10703;51.020;6.128;2023-07-31T12:56:00;5.53;;;4.97;;
21089;SDS011;10703;51.020;6.128;2023-07-31T12:58:28;6.63;;;4.93;;
21089;SDS011;10703;51.020;6.128;2023-07-31T13:00:54;5.35;;;4.80;;
21089;SDS011;10703;51.020;6.128;2023-07-31T13:03:21;4.57;;;3.80;;
21089;SDS011;10703;51.020;6.128;2023-07-31T13:05:48;4.93;;;4.53;;
21089;SDS011;10703;51.020;6.128;2023-07-31T13:08:15;5.20;;;4.38;;
21089;SDS011;10703;51.020;6.128;2023-07-31T13:10:43;5.32;;;4.35;;
21089;SDS011;10703;51.020;6.128;2023-07-31T13:13:10;5.75;;;4.60;;
21089;SDS011;10703;51.020;6.128;2023-07-31T13:15:37;6.10;;;4.30;;
21089;SDS011;10703;51.020;6.128;2023-07-31T13:18:03;7.10;;;4.53;;
21089;SDS011;10703;51.020;6.128;2023-07-31T13:20:30;6.28;;;4.25;;
21089;SDS011;10703;51.020;6.128;2023-07-31T13:22:57;4.20;;;3.80;;
21089;SDS011;10703;51.020;6.128;2023-07-31T13:25:23;4.85;;;4.07;;
21089;SDS011;10703;51.020;6.128;2023-07-31T13:27:50;4.45;;;3.80;;
21089;SDS011;10703;51.020;6.128;2023-07-31T13:30:17;4.88;;;3.53;;
21089;SDS011;10703;51.020;6.128;2023-07-31T13:32:43;5.93;;;4.25;;
21089;SDS011;10703;51.020;6.128;2023-07-31T13:35:10;3.97;;;3.58;;
21089;SDS011;10703;51.020;6.128;2023-07-31T13:37:38;3.88;;;3.50;;
21089;SDS011;10703;51.020;6.128;2023-07-31T13:40:04;4.25;;;3.80;;
21089;SDS011;10703;51.020;6.128;2023-07-31T13:42:32;7.15;;;4.10;;
21089;SDS011;10703;51.020;6.128;2023-07-31T13:44:59;5.05;;;4.07;;
21089;SDS011;10703;51.020;6.128;2023-07-31T13:47:27;4.55;;;4.15;;
21089;SDS011;10703;51.020;6.128;2023-07-31T13:49:54;4.57;;;4.18;;
21089;SDS011;10703;51.020;6.128;2023-07-31T13:52:21;4.35;;;3.95;;
21089;SDS011;10703;51.020;6.128;2023-07-31T13:54:48;5.97;;;4.27;;
21089;SDS011;10703;51.020;6.128;2023-07-31T13:57:15;4.13;;;3.73;;
21089;SDS011;10703;51.020;6.128;2023-07-31T13:59:42;7.17;;;4.30;;
21089;SDS011;10703;51.020;6.128;2023-07-31T14:02:08;5.80;;;4.70;;
21089;SDS011;10703;51.020;6.128;2023-07-31T14:04:35;5.47;;;4.97;;
21089;SDS011;10703;51.020;6.128;2023-07-31T14:07:01;5.60;;;4.77;;
21089;SDS011;10703;51.020;6.128;2023-07-31T14:09:29;7.00;;;5.10;;
21089;SDS011;10703;51.020;6.128;2023-07-31T14:11:55;5.53;;;4.60;;
21089;SDS011;10703;51.020;6.128;2023-07-31T14:14:22;5.00;;;4.60;;
21089;SDS011;10703;51.020;6.128;2023-07-31T14:16:49;5.23;;;4.57;;
21089;SDS011;10703;51.020;6.128;2023-07-31T14:19:16;5.83;;;4.60;;
21089;SDS011;10703;51.020;6.128;2023-07-31T14:21:43;6.95;;;4.90;;
21089;SDS011;10703;51.020;6.128;2023-07-31T14:24:19;5.97;;;5.17;;
21089;SDS011;10703;51.020;6.128;2023-07-31T14:26:45;5.38;;;4.88;;
21089;SDS011;10703;51.020;6.128;2023-07-31T14:29:12;6.10;;;5.03;;
21089;SDS011;10703;51.020;6.128;2023-07-31T14:31:39;6.07;;;5.23;;
21089;SDS011;10703;51.020;6.128;2023-07-31T14:34:05;5.43;;;4.90;;
21089;SDS011;10703;51.020;6.128;2023-07-31T14:36:32;4.93;;;4.30;;
21089;SDS011;10703;51.020;6.128;2023-07-31T14:38:59;4.80;;;4.40;;
21089;SDS011;10703;51.020;6.128;2023-07-31T14:41:25;4.80;;;4.30;;
21089;SDS011;10703;51.020;6.128;2023-07-31T14:43:52;5.05;;;4.55;;
21089;SDS011;10703;51.020;6.128;2023-07-31T14:46:19;6.65;;;5.18;;
21089;SDS011;10703;51.020;6.128;2023-07-31T14:48:45;6.27;;;5.17;;
21089;SDS011;10703;51.020;6.128;2023-07-31T14:51:12;6.07;;;5.47;;
21089;SDS011;10703;51.020;6.128;2023-07-31T14:53:40;5.97;;;4.83;;
21089;SDS011;10703;51.020;6.128;2023-07-31T14:56:07;5.03;;;4.53;;
21089;SDS011;10703;51.020;6.128;2023-07-31T14:58:34;5.20;;;4.70;;
21089;SDS011;10703;51.020;6.128;2023-07-31T15:01:00;6.80;;;4.43;;
21089;SDS011;10703;51.020;6.128;2023-07-31T15:03:27;5.00;;;4.60;;
21089;SDS011;10703;51.020;6.128;2023-07-31T15:05:54;5.77;;;5.17;;